sensor_id;sensor_type;location;lat;lon;timestamp;temperature;humidity
39677;DHT22;27789;50.840;4.386;2023-10-08T00:00:46;17.60;99.90
39677;DHT22;27789;50.840;4.386;2023-10-08T00:03:15;17.60;99.90
39677;DHT22;27789;50.840;4.386;2023-10-08T00:05:41;17.50;99.90
39677;DHT22;27789;50.840;4.386;2023-10-08T00:08:07;17.50;99.90
39677;DHT22;27789;50.840;4.386;2023-10-08T00:10:34;17.50;99.90
39677;DHT22;27789;50.840;4.386;2023-10-08T00:12:59;17.50;99.90
39677;DHT22;27789;50.840;4.386;2023-10-08T00:15:25;17.50;99.90
39677;DHT22;27789;50.840;4.386;2023-10-08T00:17:51;17.50;99.90
39677;DHT22;27789;50.840;4.386;2023-10-08T00:22:49;17.50;99.90
39677;DHT22;27789;50.840;4.386;2023-10-08T00:25:14;17.50;99.90
39677;DHT22;27789;50.840;4.386;2023-10-08T00:27:41;17.40;99.90
39677;DHT22;27789;50.840;4.386;2023-10-08T00:30:07;17.40;99.90
39677;DHT22;27789;50.840;4.386;2023-10-08T00:32:43;17.40;99.90
39677;DHT22;27789;50.840;4.386;2023-10-08T00:35:09;17.30;99.90
39677;DHT22;27789;50.840;4.386;2023-10-08T00:37:39;17.30;99.90
39677;DHT22;27789;50.840;4.386;2023-10-08T00:40:06;17.30;99.90
39677;DHT22;27789;50.840;4.386;2023-10-08T00:42:37;17.30;99.90
39677;DHT22;27789;50.840;4.386;2023-10-08T00:45:10;17.30;99.90
39677;DHT22;27789;50.840;4.386;2023-10-08T00:47:39;17.30;99.90
39677;DHT22;27789;50.840;4.386;2023-10-08T00:50:09;17.30;99.90
39677;DHT22;27789;50.840;4.386;2023-10-08T00:52:36;17.30;99.90
39677;DHT22;27789;50.840;4.386;2023-10-08T00:55:06;17.30;99.90
39677;DHT22;27789;50.840;4.386;2023-10-08T00:57:36;17.30;99.90
39677;DHT22;27789;50.840;4.386;2023-10-08T01:00:03;17.20;99.90
39677;DHT22;27789;50.840;4.386;2023-10-08T01:02:31;17.20;99.90
39677;DHT22;27789;50.840;4.386;2023-10-08T01:05:12;17.30;99.90
39677;DHT22;27789;50.840;4.386;2023-10-08T01:07:38;17.20;99.90
39677;DHT22;27789;50.840;4.386;2023-10-08T01:10:09;17.20;99.90
39677;DHT22;27789;50.840;4.386;2023-10-08T01:12:36;17.20;99.90
39677;DHT22;27789;50.840;4.386;2023-10-08T01:15:10;17.20;99.90
39677;DHT22;27789;50.840;4.386;2023-10-08T01:17:44;17.10;99.90
39677;DHT22;27789;50.840;4.386;2023-10-08T01:20:31;17.10;99.90
39677;DHT22;27789;50.840;4.386;2023-10-08T01:23:04;17.10;99.90
39677;DHT22;27789;50.840;4.386;2023-10-08T01:25:30;17.00;99.90
39677;DHT22;27789;50.840;4.386;2023-10-08T01:27:56;17.00;99.90
39677;DHT22;27789;50.840;4.386;2023-10-08T01:30:26;17.00;99.90
39677;DHT22;27789;50.840;4.386;2023-10-08T01:32:51;17.00;99.90
39677;DHT22;27789;50.840;4.386;2023-10-08T01:35:17;16.90;99.90
39677;DHT22;27789;50.840;4.386;2023-10-08T01:37:52;16.90;99.90
39677;DHT22;27789;50.840;4.386;2023-10-08T01:40:20;16.90;99.90
39677;DHT22;27789;50.840;4.386;2023-10-08T01:42:46;16.80;99.90
39677;DHT22;27789;50.840;4.386;2023-10-08T01:45:11;16.80;99.90
39677;DHT22;27789;50.840;4.386;2023-10-08T01:47:45;16.80;99.90
39677;DHT22;27789;50.840;4.386;2023-10-08T01:50:10;16.80;99.90
39677;DHT22;27789;50.840;4.386;2023-10-08T01:52:50;16.80;99.90
39677;DHT22;27789;50.840;4.386;2023-10-08T01:55:18;16.80;99.90
39677;DHT22;27789;50.840;4.386;2023-10-08T01:57:45;16.80;99.90
39677;DHT22;27789;50.840;4.386;2023-10-08T02:00:11;16.80;99.90
39677;DHT22;27789;50.840;4.386;2023-10-08T02:02:36;16.80;99.90
39677;DHT22;27789;50.840;4.386;2023-10-08T02:05:02;16.80;99.90
39677;DHT22;27789;50.840;4.386;2023-10-08T02:07:29;16.70;99.90
39677;DHT22;27789;50.840;4.386;2023-10-08T02:09:56;16.70;99.90
39677;DHT22;27789;50.840;4.386;2023-10-08T02:12:22;16.70;99.90
39677;DHT22;27789;50.840;4.386;2023-10-08T02:14:48;16.70;99.90
39677;DHT22;27789;50.840;4.386;2023-10-08T02:17:14;16.70;99.90
39677;DHT22;27789;50.840;4.386;2023-10-08T02:19:39;16.70;99.90
39677;DHT22;27789;50.840;4.386;2023-10-08T02:22:06;16.70;99.90
39677;DHT22;27789;50.840;4.386;2023-10-08T02:24:35;16.60;99.90
39677;DHT22;27789;50.840;4.386;2023-10-08T02:27:00;16.60;99.90
39677;DHT22;27789;50.840;4.386;2023-10-08T02:29:26;16.60;99.90
39677;DHT22;27789;50.840;4.386;2023-10-08T02:31:53;16.60;99.90
39677;DHT22;27789;50.840;4.386;2023-10-08T02:34:19;16.50;99.90
39677;DHT22;27789;50.840;4.386;2023-10-08T02:36:45;16.50;99.90
39677;DHT22;27789;50.840;4.386;2023-10-08T02:39:12;16.50;99.90
39677;DHT22;27789;50.840;4.386;2023-10-08T02:41:47;16.50;99.90
39677;DHT22;27789;50.840;4.386;2023-10-08T02:44:14;16.50;99.90
39677;DHT22;27789;50.840;4.386;2023-10-08T02:46:49;16.50;99.90
39677;DHT22;27789;50.840;4.386;2023-10-08T02:49:15;16.50;99.90
39677;DHT22;27789;50.840;4.386;2023-10-08T02:51:45;16.50;99.90
39677;DHT22;27789;50.840;4.386;2023-10-08T02:54:11;16.50;99.90
39677;DHT22;27789;50.840;4.386;2023-10-08T02:56:46;16.50;99.90
39677;DHT22;27789;50.840;4.386;2023-10-08T02:59:12;16.50;99.90
39677;DHT22;27789;50.840;4.386;2023-10-08T03:01:38;16.50;99.90
39677;DHT22;27789;50.840;4.386;2023-10-08T03:04:08;16.50;99.90
39677;DHT22;27789;50.840;4.386;2023-10-08T03:06:43;16.50;99.90
39677;DHT22;27789;50.840;4.386;2023-10-08T03:09:09;16.60;99.90
39677;DHT22;27789;50.840;4.386;2023-10-08T03:11:39;16.60;99.90
39677;DHT22;27789;50.840;4.386;2023-10-08T03:14:05;16.50;99.90
39677;DHT22;27789;50.840;4.386;2023-10-08T03:16:39;16.60;99.90
39677;DHT22;27789;50.840;4.386;2023-10-08T03:19:05;16.60;99.90
39677;DHT22;27789;50.840;4.386;2023-10-08T03:23:59;16.50;99.90
39677;DHT22;27789;50.840;4.386;2023-10-08T03:26:25;16.50;99.90
39677;DHT22;27789;50.840;4.386;2023-10-08T03:28:57;16.50;99.90
39677;DHT22;27789;50.840;4.386;2023-10-08T03:31:25;16.50;99.90
39677;DHT22;27789;50.840;4.386;2023-10-08T03:34:09;16.50;99.90
39677;DHT22;27789;50.840;4.386;2023-10-08T03:36:38;16.50;99.90
39677;DHT22;27789;50.840;4.386;2023-10-08T03:39:13;16.50;99.90
39677;DHT22;27789;50.840;4.386;2023-10-08T03:41:42;16.50;99.90
39677;DHT22;27789;50.840;4.386;2023-10-08T03:44:17;16.50;99.90
39677;DHT22;27789;50.840;4.386;2023-10-08T03:46:43;16.50;99.90
39677;DHT22;27789;50.840;4.386;2023-10-08T03:49:09;16.50;99.90
39677;DHT22;27789;50.840;4.386;2023-10-08T03:51:46;16.50;99.90
39677;DHT22;27789;50.840;4.386;2023-10-08T03:54:14;16.50;99.90
39677;DHT22;27789;50.840;4.386;2023-10-08T03:56:55;16.50;99.90
39677;DHT22;27789;50.840;4.386;2023-10-08T03:59:21;16.40;99.90
39677;DHT22;27789;50.840;4.386;2023-10-08T04:02:00;16.40;99.90
39677;DHT22;27789;50.840;4.386;2023-10-08T04:04:39;16.40;99.90
39677;DHT22;27789;50.840;4.386;2023-10-08T04:07:37;16.40;99.90
39677;DHT22;27789;50.840;4.386;2023-10-08T04:10:29;16.40;99.90
39677;DHT22;27789;50.840;4.386;2023-10-08T04:13:04;16.40;99.90
39677;DHT22;27789;50.840;4.386;2023-10-08T04:15:36;16.40;99.90
39677;DHT22;27789;50.840;4.386;2023-10-08T04:18:08;16.30;99.90
39677;DHT22;27789;50.840;4.386;2023-10-08T04:20:34;16.30;99.90
39677;DHT22;27789;50.840;4.386;2023-10-08T04:23:03;16.30;99.90
39677;DHT22;27789;50.840;4.386;2023-10-08T04:25:30;16.30;99.90
39677;DHT22;27789;50.840;4.386;2023-10-08T04:27:56;16.30;99.90
39677;DHT22;27789;50.840;4.386;2023-10-08T04:30:33;16.30;99.90
39677;DHT22;27789;50.840;4.386;2023-10-08T04:32:59;16.30;99.90
39677;DHT22;27789;50.840;4.386;2023-10-08T04:35:35;16.30;99.90
39677;DHT22;27789;50.840;4.386;2023-10-08T04:38:05;16.30;99.90
39677;DHT22;27789;50.840;4.386;2023-10-08T04:40:37;16.20;99.90
39677;DHT22;27789;50.840;4.386;2023-10-08T04:43:14;16.20;99.90
39677;DHT22;27789;50.840;4.386;2023-10-08T04:45:41;16.20;99.90
39677;DHT22;27789;50.840;4.386;2023-10-08T04:48:06;16.10;99.90
39677;DHT22;27789;50.840;4.386;2023-10-08T04:50:35;16.20;99.90
39677;DHT22;27789;50.840;4.386;2023-10-08T04:53:03;16.10;99.90
39677;DHT22;27789;50.840;4.386;2023-10-08T04:55:36;16.10;99.90
39677;DHT22;27789;50.840;4.386;2023-10-08T04:58:07;16.10;99.90
39677;DHT22;27789;50.840;4.386;2023-10-08T05:00:45;16.10;99.90
39677;DHT22;27789;50.840;4.386;2023-10-08T05:03:20;16.10;99.90
39677;DHT22;27789;50.840;4.386;2023-10-08T05:05:47;16.10;99.90
39677;DHT22;27789;50.840;4.386;2023-10-08T05:08:31;16.10;99.90
39677;DHT22;27789;50.840;4.386;2023-10-08T05:11:27;16.10;99.90
39677;DHT22;27789;50.840;4.386;2023-10-08T05:14:11;16.00;99.90
39677;DHT22;27789;50.840;4.386;2023-10-08T05:16:54;16.00;99.90
39677;DHT22;27789;50.840;4.386;2023-10-08T05:19:31;16.00;99.90
39677;DHT22;27789;50.840;4.386;2023-10-08T05:22:23;16.00;99.90
39677;DHT22;27789;50.840;4.386;2023-10-08T05:24:55;16.00;99.90
39677;DHT22;27789;50.840;4.386;2023-10-08T05:27:34;15.90;99.90
39677;DHT22;27789;50.840;4.386;2023-10-08T05:30:26;15.90;99.90
39677;DHT22;27789;50.840;4.386;2023-10-08T05:33:04;15.90;99.90
39677;DHT22;27789;50.840;4.386;2023-10-08T05:35:50;15.90;99.90
39677;DHT22;27789;50.840;4.386;2023-10-08T05:38:20;16.00;99.90
39677;DHT22;27789;50.840;4.386;2023-10-08T05:40:49;16.00;99.90
39677;DHT22;27789;50.840;4.386;2023-10-08T05:43:28;16.00;99.90
39677;DHT22;27789;50.840;4.386;2023-10-08T05:46:06;16.00;99.90
39677;DHT22;27789;50.840;4.386;2023-10-08T05:48:50;16.00;99.90
39677;DHT22;27789;50.840;4.386;2023-10-08T05:51:31;16.00;99.90
39677;DHT22;27789;50.840;4.386;2023-10-08T05:54:08;16.00;99.90
39677;DHT22;27789;50.840;4.386;2023-10-08T05:56:50;15.90;99.90
39677;DHT22;27789;50.840;4.386;2023-10-08T05:59:31;15.90;99.90
39677;DHT22;27789;50.840;4.386;2023-10-08T06:02:07;15.90;99.90
39677;DHT22;27789;50.840;4.386;2023-10-08T06:04:53;15.90;99.90
39677;DHT22;27789;50.840;4.386;2023-10-08T06:07:45;15.90;99.90
39677;DHT22;27789;50.840;4.386;2023-10-08T06:10:13;15.90;99.90
39677;DHT22;27789;50.840;4.386;2023-10-08T06:13:03;15.90;99.90
39677;DHT22;27789;50.840;4.386;2023-10-08T06:18:25;15.90;99.90
39677;DHT22;27789;50.840;4.386;2023-10-08T06:20:54;16.00;99.90
39677;DHT22;27789;50.840;4.386;2023-10-08T06:23:28;16.00;99.90
39677;DHT22;27789;50.840;4.386;2023-10-08T06:25:57;16.00;99.90
39677;DHT22;27789;50.840;4.386;2023-10-08T06:28:24;16.00;99.90
39677;DHT22;27789;50.840;4.386;2023-10-08T06:30:51;16.00;99.90
39677;DHT22;27789;50.840;4.386;2023-10-08T06:33:20;16.10;99.90
39677;DHT22;27789;50.840;4.386;2023-10-08T06:35:46;16.10;99.90
39677;DHT22;27789;50.840;4.386;2023-10-08T06:38:27;16.10;99.90
39677;DHT22;27789;50.840;4.386;2023-10-08T06:40:52;16.20;99.90
39677;DHT22;27789;50.840;4.386;2023-10-08T06:43:18;16.20;99.90
39677;DHT22;27789;50.840;4.386;2023-10-08T06:45:50;16.30;99.90
39677;DHT22;27789;50.840;4.386;2023-10-08T06:48:23;16.30;99.90
39677;DHT22;27789;50.840;4.386;2023-10-08T06:50:49;16.40;99.90
39677;DHT22;27789;50.840;4.386;2023-10-08T06:53:15;16.40;99.90
39677;DHT22;27789;50.840;4.386;2023-10-08T06:55:46;16.50;99.90
39677;DHT22;27789;50.840;4.386;2023-10-08T06:58:14;16.50;99.90
39677;DHT22;27789;50.840;4.386;2023-10-08T07:00:40;16.60;99.90
39677;DHT22;27789;50.840;4.386;2023-10-08T07:03:09;16.60;99.90
39677;DHT22;27789;50.840;4.386;2023-10-08T07:05:36;16.60;99.90
39677;DHT22;27789;50.840;4.386;2023-10-08T07:08:02;16.60;99.90
39677;DHT22;27789;50.840;4.386;2023-10-08T07:10:35;16.70;99.90
39677;DHT22;27789;50.840;4.386;2023-10-08T07:13:00;16.70;99.90
39677;DHT22;27789;50.840;4.386;2023-10-08T07:15:31;16.70;99.90
39677;DHT22;27789;50.840;4.386;2023-10-08T07:17:57;16.70;99.90
39677;DHT22;27789;50.840;4.386;2023-10-08T07:20:33;16.80;99.90
39677;DHT22;27789;50.840;4.386;2023-10-08T07:23:04;16.80;99.90
39677;DHT22;27789;50.840;4.386;2023-10-08T07:25:35;16.90;99.90
39677;DHT22;27789;50.840;4.386;2023-10-08T07:28:02;16.90;99.90
39677;DHT22;27789;50.840;4.386;2023-10-08T07:30:36;16.90;99.90
39677;DHT22;27789;50.840;4.386;2023-10-08T07:33:04;17.00;99.90
39677;DHT22;27789;50.840;4.386;2023-10-08T07:35:29;17.00;99.90
39677;DHT22;27789;50.840;4.386;2023-10-08T07:37:56;17.00;99.90
39677;DHT22;27789;50.840;4.386;2023-10-08T07:40:21;17.00;99.90
39677;DHT22;27789;50.840;4.386;2023-10-08T07:42:53;17.10;99.90
39677;DHT22;27789;50.840;4.386;2023-10-08T07:45:19;17.10;99.90
39677;DHT22;27789;50.840;4.386;2023-10-08T07:47:47;17.10;99.90
39677;DHT22;27789;50.840;4.386;2023-10-08T07:50:13;17.20;99.90
39677;DHT22;27789;50.840;4.386;2023-10-08T07:52:41;17.20;99.90
39677;DHT22;27789;50.840;4.386;2023-10-08T07:55:09;17.30;99.90
39677;DHT22;27789;50.840;4.386;2023-10-08T07:57:35;17.30;99.90
39677;DHT22;27789;50.840;4.386;2023-10-08T08:00:00;17.40;99.90
39677;DHT22;27789;50.840;4.386;2023-10-08T08:02:48;17.50;99.90
39677;DHT22;27789;50.840;4.386;2023-10-08T08:05:14;17.50;99.90
39677;DHT22;27789;50.840;4.386;2023-10-08T08:07:43;17.50;99.90
39677;DHT22;27789;50.840;4.386;2023-10-08T08:10:11;17.60;99.90
39677;DHT22;27789;50.840;4.386;2023-10-08T08:12:37;17.70;99.90
39677;DHT22;27789;50.840;4.386;2023-10-08T08:15:03;17.80;99.90
39677;DHT22;27789;50.840;4.386;2023-10-08T08:17:40;17.80;99.90
39677;DHT22;27789;50.840;4.386;2023-10-08T08:20:06;17.90;99.90
39677;DHT22;27789;50.840;4.386;2023-10-08T08:25:13;17.90;99.90
39677;DHT22;27789;50.840;4.386;2023-10-08T08:27:42;17.90;99.90
39677;DHT22;27789;50.840;4.386;2023-10-08T08:30:09;17.90;99.90
39677;DHT22;27789;50.840;4.386;2023-10-08T08:32:39;17.80;99.90
39677;DHT22;27789;50.840;4.386;2023-10-08T08:35:10;17.80;99.90
39677;DHT22;27789;50.840;4.386;2023-10-08T08:37:36;17.90;99.90
39677;DHT22;27789;50.840;4.386;2023-10-08T08:40:04;17.90;99.90
39677;DHT22;27789;50.840;4.386;2023-10-08T08:42:45;18.00;99.90
39677;DHT22;27789;50.840;4.386;2023-10-08T08:45:21;18.10;99.90
39677;DHT22;27789;50.840;4.386;2023-10-08T08:47:47;18.30;99.90
39677;DHT22;27789;50.840;4.386;2023-10-08T08:50:13;18.30;99.90
39677;DHT22;27789;50.840;4.386;2023-10-08T08:52:39;18.30;99.90
39677;DHT22;27789;50.840;4.386;2023-10-08T08:55:05;18.20;99.90
39677;DHT22;27789;50.840;4.386;2023-10-08T08:57:36;18.30;99.90
39677;DHT22;27789;50.840;4.386;2023-10-08T09:00:05;18.30;99.90
39677;DHT22;27789;50.840;4.386;2023-10-08T09:02:34;18.40;99.90
39677;DHT22;27789;50.840;4.386;2023-10-08T09:05:01;18.60;99.90
39677;DHT22;27789;50.840;4.386;2023-10-08T09:07:57;18.70;99.90
39677;DHT22;27789;50.840;4.386;2023-10-08T09:10:24;18.90;99.90
39677;DHT22;27789;50.840;4.386;2023-10-08T09:12:53;19.10;99.90
39677;DHT22;27789;50.840;4.386;2023-10-08T09:15:19;19.10;99.90
39677;DHT22;27789;50.840;4.386;2023-10-08T09:17:45;19.20;99.90
39677;DHT22;27789;50.840;4.386;2023-10-08T09:20:11;19.20;99.90
39677;DHT22;27789;50.840;4.386;2023-10-08T09:22:37;19.30;99.90
39677;DHT22;27789;50.840;4.386;2023-10-08T09:25:03;19.40;99.90
39677;DHT22;27789;50.840;4.386;2023-10-08T09:27:32;19.50;99.90
39677;DHT22;27789;50.840;4.386;2023-10-08T09:29:58;19.60;99.90
39677;DHT22;27789;50.840;4.386;2023-10-08T09:32:24;19.70;99.90
39677;DHT22;27789;50.840;4.386;2023-10-08T09:34:53;19.80;99.90
39677;DHT22;27789;50.840;4.386;2023-10-08T09:37:33;19.70;99.90
39677;DHT22;27789;50.840;4.386;2023-10-08T09:39:59;19.70;99.90
39677;DHT22;27789;50.840;4.386;2023-10-08T09:42:25;19.70;99.90
39677;DHT22;27789;50.840;4.386;2023-10-08T09:44:51;19.80;99.90
39677;DHT22;27789;50.840;4.386;2023-10-08T09:47:20;19.90;99.90
39677;DHT22;27789;50.840;4.386;2023-10-08T09:52:13;21.00;99.90
39677;DHT22;27789;50.840;4.386;2023-10-08T09:54:49;21.80;99.90
39677;DHT22;27789;50.840;4.386;2023-10-08T09:57:16;22.70;99.90
39677;DHT22;27789;50.840;4.386;2023-10-08T09:59:44;23.90;99.90
39677;DHT22;27789;50.840;4.386;2023-10-08T10:02:10;24.90;99.90
39677;DHT22;27789;50.840;4.386;2023-10-08T10:04:35;25.50;99.90
39677;DHT22;27789;50.840;4.386;2023-10-08T10:07:11;25.80;99.90
39677;DHT22;27789;50.840;4.386;2023-10-08T10:09:38;25.90;99.70
39677;DHT22;27789;50.840;4.386;2023-10-08T10:12:04;26.20;99.60
39677;DHT22;27789;50.840;4.386;2023-10-08T10:14:45;26.90;99.20
39677;DHT22;27789;50.840;4.386;2023-10-08T10:17:14;27.10;98.70
39677;DHT22;27789;50.840;4.386;2023-10-08T10:19:41;27.00;98.80
39677;DHT22;27789;50.840;4.386;2023-10-08T10:22:12;26.50;99.10
39677;DHT22;27789;50.840;4.386;2023-10-08T10:24:40;26.70;99.20
39677;DHT22;27789;50.840;4.386;2023-10-08T10:27:11;27.00;98.80
39677;DHT22;27789;50.840;4.386;2023-10-08T10:29:37;27.40;98.40
39677;DHT22;27789;50.840;4.386;2023-10-08T10:32:02;28.00;98.00
39677;DHT22;27789;50.840;4.386;2023-10-08T10:34:30;27.90;98.10
39677;DHT22;27789;50.840;4.386;2023-10-08T10:37:00;27.60;98.20
39677;DHT22;27789;50.840;4.386;2023-10-08T10:39:34;27.50;98.70
39677;DHT22;27789;50.840;4.386;2023-10-08T10:42:05;28.00;98.00
39677;DHT22;27789;50.840;4.386;2023-10-08T10:44:32;27.90;98.10
39677;DHT22;27789;50.840;4.386;2023-10-08T10:46:58;28.10;97.80
39677;DHT22;27789;50.840;4.386;2023-10-08T10:49:49;28.00;98.10
39677;DHT22;27789;50.840;4.386;2023-10-08T10:52:24;28.40;97.80
39677;DHT22;27789;50.840;4.386;2023-10-08T10:55:08;28.20;98.00
39677;DHT22;27789;50.840;4.386;2023-10-08T10:57:40;27.70;98.20
39677;DHT22;27789;50.840;4.386;2023-10-08T11:00:07;28.00;98.20
39677;DHT22;27789;50.840;4.386;2023-10-08T11:02:51;28.30;97.90
39677;DHT22;27789;50.840;4.386;2023-10-08T11:05:18;28.40;97.80
39677;DHT22;27789;50.840;4.386;2023-10-08T11:07:48;28.20;97.90
39677;DHT22;27789;50.840;4.386;2023-10-08T11:10:14;28.40;97.80
39677;DHT22;27789;50.840;4.386;2023-10-08T11:12:42;29.10;97.70
39677;DHT22;27789;50.840;4.386;2023-10-08T11:15:13;29.60;97.20
39677;DHT22;27789;50.840;4.386;2023-10-08T11:17:41;30.00;96.70
39677;DHT22;27789;50.840;4.386;2023-10-08T11:20:22;29.90;96.70
39677;DHT22;27789;50.840;4.386;2023-10-08T11:22:48;30.00;96.50
39677;DHT22;27789;50.840;4.386;2023-10-08T11:25:23;30.10;96.30
39677;DHT22;27789;50.840;4.386;2023-10-08T11:27:53;30.30;96.20
39677;DHT22;27789;50.840;4.386;2023-10-08T11:30:30;30.70;96.10
39677;DHT22;27789;50.840;4.386;2023-10-08T11:32:57;30.80;95.70
39677;DHT22;27789;50.840;4.386;2023-10-08T11:35:24;30.60;95.80
39677;DHT22;27789;50.840;4.386;2023-10-08T11:37:52;30.20;96.00
39677;DHT22;27789;50.840;4.386;2023-10-08T11:40:26;30.10;96.40
39677;DHT22;27789;50.840;4.386;2023-10-08T11:43:12;30.30;96.30
39677;DHT22;27789;50.840;4.386;2023-10-08T11:45:44;30.80;95.90
39677;DHT22;27789;50.840;4.386;2023-10-08T11:48:18;31.20;95.70
39677;DHT22;27789;50.840;4.386;2023-10-08T11:50:54;31.40;95.30
39677;DHT22;27789;50.840;4.386;2023-10-08T11:53:22;31.70;95.30
39677;DHT22;27789;50.840;4.386;2023-10-08T11:55:49;31.90;94.80
39677;DHT22;27789;50.840;4.386;2023-10-08T11:58:19;31.90;94.60
39677;DHT22;27789;50.840;4.386;2023-10-08T12:00:45;32.10;94.60
39677;DHT22;27789;50.840;4.386;2023-10-08T12:03:11;32.50;94.70
39677;DHT22;27789;50.840;4.386;2023-10-08T12:05:37;32.80;94.30
39677;DHT22;27789;50.840;4.386;2023-10-08T12:08:08;32.90;93.70
39677;DHT22;27789;50.840;4.386;2023-10-08T12:10:34;32.90;94.10
39677;DHT22;27789;50.840;4.386;2023-10-08T12:13:00;32.70;94.10
39677;DHT22;27789;50.840;4.386;2023-10-08T12:15:25;32.70;94.10
39677;DHT22;27789;50.840;4.386;2023-10-08T12:17:59;32.80;93.90
39677;DHT22;27789;50.840;4.386;2023-10-08T12:20:37;32.70;93.90
39677;DHT22;27789;50.840;4.386;2023-10-08T12:23:06;33.00;93.70
39677;DHT22;27789;50.840;4.386;2023-10-08T12:25:38;33.20;93.80
39677;DHT22;27789;50.840;4.386;2023-10-08T12:28:04;33.30;93.80
39677;DHT22;27789;50.840;4.386;2023-10-08T12:30:30;33.20;93.90
39677;DHT22;27789;50.840;4.386;2023-10-08T12:32:56;33.20;93.90
39677;DHT22;27789;50.840;4.386;2023-10-08T12:35:23;33.30;93.90
39677;DHT22;27789;50.840;4.386;2023-10-08T12:37:49;33.50;93.40
39677;DHT22;27789;50.840;4.386;2023-10-08T12:40:15;33.20;93.20
39677;DHT22;27789;50.840;4.386;2023-10-08T12:42:52;33.30;93.10
39677;DHT22;27789;50.840;4.386;2023-10-08T12:45:18;32.70;92.90
39677;DHT22;27789;50.840;4.386;2023-10-08T12:47:50;32.40;93.40
39677;DHT22;27789;50.840;4.386;2023-10-08T12:50:17;32.10;93.90
39677;DHT22;27789;50.840;4.386;2023-10-08T12:52:45;32.40;93.60
39677;DHT22;27789;50.840;4.386;2023-10-08T12:55:19;32.00;93.80
39677;DHT22;27789;50.840;4.386;2023-10-08T12:57:52;31.90;94.00
39677;DHT22;27789;50.840;4.386;2023-10-08T13:00:24;31.90;93.20
39677;DHT22;27789;50.840;4.386;2023-10-08T13:02:50;31.40;93.70
39677;DHT22;27789;50.840;4.386;2023-10-08T13:05:20;32.00;93.80
39677;DHT22;27789;50.840;4.386;2023-10-08T13:07:52;31.50;93.60
39677;DHT22;27789;50.840;4.386;2023-10-08T13:10:21;31.00;94.40
39677;DHT22;27789;50.840;4.386;2023-10-08T13:12:47;31.40;93.80
39677;DHT22;27789;50.840;4.386;2023-10-08T13:15:13;31.50;93.90
39677;DHT22;27789;50.840;4.386;2023-10-08T13:17:38;32.00;93.90
39677;DHT22;27789;50.840;4.386;2023-10-08T13:20:13;32.50;93.50
39677;DHT22;27789;50.840;4.386;2023-10-08T13:22:40;32.80;93.60
39677;DHT22;27789;50.840;4.386;2023-10-08T13:25:05;33.20;93.40
39677;DHT22;27789;50.840;4.386;2023-10-08T13:27:31;33.10;93.00
39677;DHT22;27789;50.840;4.386;2023-10-08T13:29:57;31.70;93.00
39677;DHT22;27789;50.840;4.386;2023-10-08T13:32:24;30.50;94.00
39677;DHT22;27789;50.840;4.386;2023-10-08T13:34:49;29.00;95.00
39677;DHT22;27789;50.840;4.386;2023-10-08T13:37:15;28.40;95.50
39677;DHT22;27789;50.840;4.386;2023-10-08T13:39:41;27.90;95.80
39677;DHT22;27789;50.840;4.386;2023-10-08T13:42:06;27.90;95.60
39677;DHT22;27789;50.840;4.386;2023-10-08T13:44:32;27.40;96.30
39677;DHT22;27789;50.840;4.386;2023-10-08T13:46:58;27.30;96.40
39677;DHT22;27789;50.840;4.386;2023-10-08T13:49:25;27.40;97.00
39677;DHT22;27789;50.840;4.386;2023-10-08T13:51:52;27.30;96.90
39677;DHT22;27789;50.840;4.386;2023-10-08T13:54:21;27.10;96.90
39677;DHT22;27789;50.840;4.386;2023-10-08T13:56:47;26.90;97.30
39677;DHT22;27789;50.840;4.386;2023-10-08T13:59:15;26.70;97.30
39677;DHT22;27789;50.840;4.386;2023-10-08T14:01:42;26.40;97.40
39677;DHT22;27789;50.840;4.386;2023-10-08T14:04:17;26.20;97.60
39677;DHT22;27789;50.840;4.386;2023-10-08T14:06:45;26.20;98.20
39677;DHT22;27789;50.840;4.386;2023-10-08T14:09:17;26.00;97.70
39677;DHT22;27789;50.840;4.386;2023-10-08T14:11:50;26.00;98.10
39677;DHT22;27789;50.840;4.386;2023-10-08T14:14:18;25.70;98.30
39677;DHT22;27789;50.840;4.386;2023-10-08T14:16:45;25.70;98.50
39677;DHT22;27789;50.840;4.386;2023-10-08T14:19:13;25.70;98.50
39677;DHT22;27789;50.840;4.386;2023-10-08T14:21:39;25.60;98.60
39677;DHT22;27789;50.840;4.386;2023-10-08T14:24:17;25.50;98.70
39677;DHT22;27789;50.840;4.386;2023-10-08T14:26:43;25.40;98.70
39677;DHT22;27789;50.840;4.386;2023-10-08T14:29:09;25.20;98.60
39677;DHT22;27789;50.840;4.386;2023-10-08T14:31:40;25.20;98.80
39677;DHT22;27789;50.840;4.386;2023-10-08T14:34:07;25.30;99.00
39677;DHT22;27789;50.840;4.386;2023-10-08T14:36:45;25.30;99.10
39677;DHT22;27789;50.840;4.386;2023-10-08T14:39:30;25.30;99.30
39677;DHT22;27789;50.840;4.386;2023-10-08T14:42:14;25.20;99.30
39677;DHT22;27789;50.840;4.386;2023-10-08T14:44:58;25.20;99.60
39677;DHT22;27789;50.840;4.386;2023-10-08T14:47:26;25.20;99.50
39677;DHT22;27789;50.840;4.386;2023-10-08T14:49:51;25.20;99.60
39677;DHT22;27789;50.840;4.386;2023-10-08T14:52:17;25.40;99.30
39677;DHT22;27789;50.840;4.386;2023-10-08T14:57:12;25.50;99.00
39677;DHT22;27789;50.840;4.386;2023-10-08T14:59:40;25.20;99.10
39677;DHT22;27789;50.840;4.386;2023-10-08T15:02:05;25.20;99.50
39677;DHT22;27789;50.840;4.386;2023-10-08T15:04:32;25.10;99.50
39677;DHT22;27789;50.840;4.386;2023-10-08T15:07:01;25.00;99.60
39677;DHT22;27789;50.840;4.386;2023-10-08T15:09:27;25.10;99.80
39677;DHT22;27789;50.840;4.386;2023-10-08T15:11:53;24.90;99.90
39677;DHT22;27789;50.840;4.386;2023-10-08T15:14:19;24.80;99.90
39677;DHT22;27789;50.840;4.386;2023-10-08T15:16:45;24.80;99.90
39677;DHT22;27789;50.840;4.386;2023-10-08T15:19:23;24.70;99.90
39677;DHT22;27789;50.840;4.386;2023-10-08T15:21:49;24.50;99.90
39677;DHT22;27789;50.840;4.386;2023-10-08T15:24:21;24.40;99.90
39677;DHT22;27789;50.840;4.386;2023-10-08T15:26:50;24.40;99.90
39677;DHT22;27789;50.840;4.386;2023-10-08T15:29:21;24.30;99.90
39677;DHT22;27789;50.840;4.386;2023-10-08T15:31:50;24.20;99.90
39677;DHT22;27789;50.840;4.386;2023-10-08T15:34:17;24.20;99.90
39677;DHT22;27789;50.840;4.386;2023-10-08T15:36:42;24.20;99.90
39677;DHT22;27789;50.840;4.386;2023-10-08T15:39:08;24.10;99.90
39677;DHT22;27789;50.840;4.386;2023-10-08T15:41:38;24.00;99.90
39677;DHT22;27789;50.840;4.386;2023-10-08T15:44:04;23.90;99.90
39677;DHT22;27789;50.840;4.386;2023-10-08T15:46:31;23.80;99.90
39677;DHT22;27789;50.840;4.386;2023-10-08T15:48:59;23.70;99.90
39677;DHT22;27789;50.840;4.386;2023-10-08T15:51:25;23.70;99.90
39677;DHT22;27789;50.840;4.386;2023-10-08T15:53:52;23.70;99.90
39677;DHT22;27789;50.840;4.386;2023-10-08T15:56:18;23.60;99.90
39677;DHT22;27789;50.840;4.386;2023-10-08T15:58:43;23.60;99.90
39677;DHT22;27789;50.840;4.386;2023-10-08T16:01:09;23.50;99.90
39677;DHT22;27789;50.840;4.386;2023-10-08T16:03:38;23.50;99.90